createdAt,value
2018-08-11T00:02:25.098Z,22.30
2018-08-11T00:04:53.194Z,22.30
2018-08-11T00:07:21.303Z,22.30
2018-08-11T00:09:49.414Z,22.30
2018-08-11T00:12:17.514Z,22.30
2018-08-11T00:14:45.662Z,22.30
2018-08-11T00:17:13.820Z,22.30
2018-08-11T00:19:41.934Z,22.30
2018-08-11T00:22:10.077Z,22.30
2018-08-11T00:24:38.170Z,22.30
2018-08-11T00:27:06.256Z,22.20
2018-08-11T00:29:34.325Z,22.20
2018-08-11T00:32:02.393Z,22.20
2018-08-11T00:34:30.501Z,22.20
2018-08-11T00:36:58.577Z,22.20
2018-08-11T00:39:26.643Z,22.20
2018-08-11T00:41:54.730Z,22.20
2018-08-11T00:44:22.869Z,22.20
2018-08-11T00:46:50.974Z,22.20
2018-08-11T00:49:19.166Z,22.20
2018-08-11T00:51:47.217Z,22.20
2018-08-11T00:54:15.306Z,22.20
2018-08-11T00:56:43.459Z,22.20
2018-08-11T00:59:11.522Z,22.10
2018-08-11T01:01:39.569Z,22.10
2018-08-11T01:04:07.750Z,22.10
2018-08-11T01:06:35.835Z,22.10
2018-08-11T01:09:06.046Z,22.10
2018-08-11T01:11:34.120Z,22.10
2018-08-11T01:14:03.485Z,22.10
2018-08-11T01:16:31.526Z,22.10
2018-08-11T01:18:59.579Z,22.00
2018-08-11T01:21:27.641Z,22.00
2018-08-11T01:23:55.743Z,22.00
2018-08-11T01:26:23.821Z,22.00
2018-08-11T01:28:51.899Z,22.00
2018-08-11T01:31:19.970Z,22.00
2018-08-11T01:33:48.010Z,22.00
2018-08-11T01:36:16.064Z,22.00
2018-08-11T01:38:44.158Z,22.00
2018-08-11T01:41:12.212Z,22.00
2018-08-11T01:43:40.348Z,21.90
2018-08-11T01:46:08.463Z,21.90
2018-08-11T01:48:36.505Z,21.90
2018-08-11T01:51:04.578Z,21.90
2018-08-11T01:53:32.771Z,21.90
2018-08-11T01:56:00.843Z,21.80
2018-08-11T01:58:28.921Z,21.90
2018-08-11T02:00:56.990Z,21.80
2018-08-11T02:03:25.045Z,21.80
2018-08-11T02:05:53.094Z,21.80
2018-08-11T02:08:21.199Z,21.80
2018-08-11T02:10:49.338Z,21.80
2018-08-11T02:13:17.449Z,21.80
2018-08-11T02:15:45.535Z,21.80
2018-08-11T02:18:13.591Z,21.80
2018-08-11T02:20:41.699Z,21.80
2018-08-11T02:23:09.790Z,21.70
2018-08-11T02:25:37.938Z,21.70
2018-08-11T02:28:06.108Z,21.70
2018-08-11T02:30:34.196Z,21.70
2018-08-11T02:33:02.312Z,21.70
2018-08-11T02:35:30.402Z,21.70
2018-08-11T02:37:58.514Z,21.70
2018-08-11T02:40:26.584Z,21.70
2018-08-11T02:42:54.710Z,21.70
2018-08-11T02:45:22.806Z,21.70
2018-08-11T02:47:50.894Z,21.70
2018-08-11T02:50:18.962Z,21.60
2018-08-11T02:52:47.196Z,21.60
2018-08-11T02:55:15.247Z,21.60
2018-08-11T02:57:43.299Z,21.60
2018-08-11T03:00:12.226Z,21.60
2018-08-11T03:02:40.404Z,21.60
2018-08-11T03:05:08.461Z,21.60
2018-08-11T03:07:37.072Z,21.60
2018-08-11T03:10:06.092Z,21.60
2018-08-11T03:12:34.210Z,21.60
2018-08-11T03:15:02.358Z,21.50
2018-08-11T03:17:30.430Z,21.50
2018-08-11T03:19:58.546Z,21.50
2018-08-11T03:22:26.632Z,21.50
2018-08-11T03:24:54.679Z,21.50
2018-08-11T03:27:22.769Z,21.50
2018-08-11T03:29:50.850Z,21.50
2018-08-11T03:32:18.908Z,21.50
2018-08-11T03:34:46.998Z,21.40
2018-08-11T03:37:15.118Z,21.50
2018-08-11T03:39:43.237Z,21.40
2018-08-11T03:42:11.309Z,21.40
2018-08-11T03:44:39.364Z,21.40
2018-08-11T03:47:07.417Z,21.40
2018-08-11T03:49:35.475Z,21.40
2018-08-11T03:52:03.551Z,21.40
2018-08-11T03:54:31.645Z,21.40
2018-08-11T03:56:59.718Z,21.40
2018-08-11T03:59:27.801Z,21.40
2018-08-11T04:01:55.877Z,21.40
2018-08-11T04:04:23.930Z,21.40
2018-08-11T04:06:51.981Z,21.40
2018-08-11T04:09:20.040Z,21.40
2018-08-11T04:11:48.110Z,21.40
2018-08-11T04:14:16.254Z,21.40
2018-08-11T04:16:44.366Z,21.40
2018-08-11T04:19:12.410Z,21.40
2018-08-11T04:21:40.558Z,21.40
2018-08-11T04:24:09.061Z,21.40
2018-08-11T04:26:37.154Z,21.40
2018-08-11T04:29:05.318Z,21.40
2018-08-11T04:31:33.455Z,21.40
2018-08-11T04:34:01.568Z,21.50
2018-08-11T04:36:29.674Z,21.50
2018-08-11T04:38:57.832Z,21.50
2018-08-11T04:41:25.894Z,21.50
2018-08-11T04:43:53.998Z,21.50
2018-08-11T04:46:22.118Z,21.50
2018-08-11T04:48:50.202Z,21.50
2018-08-11T04:51:18.407Z,21.60
2018-08-11T04:53:46.530Z,21.60
2018-08-11T04:56:14.642Z,21.60
2018-08-11T04:58:42.766Z,21.60
2018-08-11T05:01:10.829Z,21.60
2018-08-11T05:03:38.911Z,21.60
2018-08-11T05:06:07.076Z,21.70
2018-08-11T05:08:35.122Z,21.70
2018-08-11T05:11:03.174Z,21.70
2018-08-11T05:13:31.237Z,21.70
2018-08-11T05:15:59.340Z,21.80
2018-08-11T05:18:27.431Z,21.70
2018-08-11T05:20:55.501Z,21.70
2018-08-11T05:23:23.557Z,21.80
2018-08-11T05:25:51.780Z,21.70
2018-08-11T05:28:19.934Z,21.70
2018-08-11T05:30:48.038Z,21.70
2018-08-11T05:33:16.217Z,20.50
2018-08-11T05:35:44.211Z,21.80
2018-08-11T05:38:12.274Z,21.80
2018-08-11T05:40:40.345Z,21.70
2018-08-11T05:43:08.455Z,21.70
2018-08-11T05:45:37.422Z,21.60
2018-08-11T05:48:05.799Z,21.70
2018-08-11T05:50:34.134Z,21.70
2018-08-11T05:53:02.206Z,21.70
2018-08-11T05:55:30.629Z,21.70
2018-08-11T05:57:58.750Z,21.70
2018-08-11T06:00:26.830Z,21.60
2018-08-11T06:02:54.890Z,21.80
2018-08-11T06:05:22.950Z,21.80
2018-08-11T06:07:51.025Z,21.80
2018-08-11T06:10:19.119Z,21.80
2018-08-11T06:12:47.182Z,21.80
2018-08-11T06:15:15.240Z,21.80
2018-08-11T06:17:43.436Z,21.80
2018-08-11T06:20:11.530Z,21.90
2018-08-11T06:22:39.604Z,21.90
2018-08-11T06:25:09.326Z,21.90
2018-08-11T06:27:37.421Z,21.90
2018-08-11T06:30:06.542Z,21.90
2018-08-11T06:32:34.633Z,22.00
2018-08-11T06:35:02.686Z,21.90
2018-08-11T06:37:30.836Z,22.00
2018-08-11T06:39:58.933Z,22.00
2018-08-11T06:42:27.026Z,22.00
2018-08-11T06:44:55.118Z,22.00
2018-08-11T06:47:23.171Z,22.00
2018-08-11T06:49:51.223Z,22.00
2018-08-11T06:52:19.291Z,22.00
2018-08-11T06:54:47.363Z,22.00
2018-08-11T06:57:15.471Z,22.00
2018-08-11T06:59:43.584Z,22.00
2018-08-11T07:02:11.661Z,22.00
2018-08-11T07:04:39.738Z,22.00
2018-08-11T07:07:07.838Z,22.00
2018-08-11T07:09:35.905Z,22.00
2018-08-11T07:12:03.976Z,22.00
2018-08-11T07:14:32.061Z,22.00
2018-08-11T07:17:00.239Z,22.10
2018-08-11T07:19:28.689Z,22.10
2018-08-11T07:21:56.786Z,22.10
2018-08-11T07:24:24.960Z,22.10
2018-08-11T07:26:53.010Z,22.10
2018-08-11T07:29:21.062Z,22.20
2018-08-11T07:31:49.154Z,22.30
2018-08-11T07:34:17.245Z,22.40
2018-08-11T07:36:45.452Z,22.40
2018-08-11T07:39:13.475Z,22.50
2018-08-11T07:41:41.530Z,22.50
2018-08-11T07:44:09.658Z,22.50
2018-08-11T07:46:37.764Z,22.50
2018-08-11T07:49:06.052Z,22.50
2018-08-11T07:51:34.139Z,22.40
2018-08-11T07:54:02.194Z,22.40
2018-08-11T07:56:30.287Z,22.40
2018-08-11T07:58:58.350Z,22.40
2018-08-11T08:01:26.507Z,22.40
2018-08-11T08:03:54.528Z,22.40
2018-08-11T08:06:22.634Z,22.50
2018-08-11T08:08:50.736Z,22.60
2018-08-11T08:11:18.799Z,22.60
2018-08-11T08:13:46.944Z,22.60
2018-08-11T08:16:14.902Z,22.60
2018-08-11T08:18:43.034Z,22.60
2018-08-11T08:21:11.174Z,22.60
2018-08-11T08:23:39.287Z,22.60
2018-08-11T08:26:07.416Z,22.70
2018-08-11T08:28:35.437Z,22.70
2018-08-11T08:31:03.555Z,22.70
2018-08-11T08:33:31.685Z,22.60
2018-08-11T08:36:00.210Z,22.70
2018-08-11T08:38:28.515Z,22.70
2018-08-11T08:40:56.623Z,22.70
2018-08-11T08:43:24.741Z,22.80
2018-08-11T08:45:52.888Z,22.80
2018-08-11T08:48:20.970Z,22.80
2018-08-11T08:50:49.062Z,22.80
2018-08-11T08:53:17.165Z,22.80
2018-08-11T08:55:45.210Z,22.90
2018-08-11T08:58:13.301Z,22.90
2018-08-11T09:00:41.454Z,22.90
2018-08-11T09:03:09.550Z,22.90
2018-08-11T09:05:37.617Z,23.00
2018-08-11T09:08:05.741Z,23.00
2018-08-11T09:10:33.850Z,23.00
2018-08-11T09:13:01.947Z,23.00
2018-08-11T09:15:30.076Z,23.00
2018-08-11T09:17:58.136Z,23.00
2018-08-11T09:20:26.198Z,23.10
2018-08-11T09:22:54.282Z,23.10
2018-08-11T09:25:22.387Z,23.10
2018-08-11T09:27:50.493Z,23.20
2018-08-11T09:35:13.034Z,23.20
2018-08-11T09:37:41.131Z,23.30
2018-08-11T09:40:09.202Z,23.30
2018-08-11T09:42:37.275Z,23.30
2018-08-11T09:45:05.618Z,23.30
2018-08-11T09:47:33.705Z,23.30
2018-08-11T09:50:01.807Z,23.40
2018-08-11T09:52:29.914Z,23.40
2018-08-11T09:54:57.990Z,23.40
2018-08-11T09:57:26.086Z,23.40
2018-08-11T09:59:54.249Z,23.40
2018-08-11T10:02:22.834Z,23.40
2018-08-11T10:04:50.918Z,23.40
2018-08-11T10:07:19.209Z,23.40
2018-08-11T10:09:47.278Z,23.50
2018-08-11T10:12:15.406Z,23.60
2018-08-11T10:14:43.548Z,23.60
2018-08-11T10:17:11.622Z,23.60
2018-08-11T10:19:39.751Z,23.60
2018-08-11T10:22:07.878Z,23.60
2018-08-11T10:24:36.003Z,23.60
2018-08-11T10:27:04.069Z,23.60
2018-08-11T10:29:32.188Z,23.60
2018-08-11T10:32:00.250Z,23.70
2018-08-11T10:34:28.414Z,23.70
2018-08-11T10:36:57.451Z,23.70
2018-08-11T10:39:25.519Z,23.60
2018-08-11T10:41:53.737Z,23.60
2018-08-11T10:44:21.786Z,23.70
2018-08-11T10:46:49.859Z,23.70
2018-08-11T10:49:18.048Z,23.80
2018-08-11T10:51:46.146Z,23.80
2018-08-11T10:54:14.265Z,23.80
2018-08-11T10:56:42.463Z,23.80
2018-08-11T10:59:10.574Z,23.80
2018-08-11T11:01:38.713Z,23.80
2018-08-11T11:04:06.786Z,23.80
2018-08-11T11:06:34.869Z,23.80
2018-08-11T11:09:02.966Z,23.80
2018-08-11T11:11:31.058Z,23.80
2018-08-11T11:13:59.166Z,23.80
2018-08-11T11:16:27.254Z,23.80
2018-08-11T11:18:55.321Z,23.80
2018-08-11T11:21:23.398Z,23.80
2018-08-11T11:23:51.574Z,23.80
2018-08-11T11:26:19.662Z,23.90
2018-08-11T11:28:47.739Z,23.90
2018-08-11T11:31:15.801Z,23.90
2018-08-11T11:33:43.961Z,24.00
2018-08-11T11:36:12.058Z,24.00
2018-08-11T11:38:40.163Z,24.10
2018-08-11T11:41:08.278Z,24.10
2018-08-11T11:43:36.432Z,24.10
2018-08-11T11:46:04.607Z,24.10
2018-08-11T11:48:32.681Z,24.10
2018-08-11T11:51:00.786Z,24.10
2018-08-11T11:53:28.861Z,24.20
2018-08-11T11:55:56.974Z,24.20
2018-08-11T11:58:25.096Z,24.20
2018-08-11T12:00:53.215Z,24.20
2018-08-11T12:03:21.289Z,24.20
2018-08-11T12:05:49.416Z,24.30
2018-08-11T12:08:17.486Z,24.30
2018-08-11T12:10:45.582Z,24.20
2018-08-11T12:13:13.667Z,24.20
2018-08-11T12:15:41.759Z,24.20
2018-08-11T12:18:09.870Z,24.20
2018-08-11T12:20:38.042Z,24.20
2018-08-11T12:23:06.126Z,24.10
2018-08-11T12:25:34.243Z,24.10
2018-08-11T12:28:02.302Z,24.10
2018-08-11T12:30:30.410Z,24.20
2018-08-11T12:32:58.539Z,24.20
2018-08-11T12:35:26.646Z,24.20
2018-08-11T12:37:54.764Z,24.20
2018-08-11T12:40:22.778Z,24.20
2018-08-11T12:42:50.885Z,24.30
2018-08-11T12:45:20.066Z,24.20
2018-08-11T12:47:48.142Z,24.20
2018-08-11T12:50:16.255Z,24.20
2018-08-11T12:52:44.354Z,24.20
2018-08-11T12:55:12.454Z,24.20
2018-08-11T12:57:40.598Z,24.20
2018-08-11T13:00:09.690Z,24.20
2018-08-11T13:02:37.959Z,24.20
2018-08-11T13:05:06.112Z,24.30
2018-08-11T13:07:34.249Z,24.30
2018-08-11T13:10:02.330Z,24.40
2018-08-11T13:12:30.895Z,24.40
2018-08-11T13:14:59.102Z,24.40
2018-08-11T13:17:27.218Z,24.40
2018-08-11T13:19:55.319Z,24.40
2018-08-11T13:22:23.490Z,24.40
2018-08-11T13:24:51.602Z,24.50
2018-08-11T13:27:19.727Z,24.50
2018-08-11T13:29:47.805Z,24.50
2018-08-11T13:32:15.946Z,24.60
2018-08-11T13:34:44.059Z,24.60
2018-08-11T13:37:12.129Z,24.60
2018-08-11T13:39:45.317Z,24.70
2018-08-11T13:42:13.446Z,24.70
2018-08-11T13:44:41.529Z,24.70
2018-08-11T13:47:09.610Z,24.70
2018-08-11T13:49:37.739Z,24.70
2018-08-11T13:52:05.846Z,24.80
2018-08-11T13:54:33.983Z,24.80
2018-08-11T13:57:02.086Z,24.80
2018-08-11T13:59:30.194Z,24.80
2018-08-11T14:01:58.230Z,24.80
2018-08-11T14:04:26.333Z,24.80
2018-08-11T14:06:54.466Z,24.80
2018-08-11T14:09:22.587Z,24.80
2018-08-11T14:11:50.688Z,24.80
2018-08-11T14:14:18.819Z,24.70
2018-08-11T14:16:46.854Z,24.70
2018-08-11T14:19:14.983Z,24.70
2018-08-11T14:21:43.146Z,24.70
2018-08-11T14:24:11.310Z,24.70
2018-08-11T14:26:39.488Z,24.70
2018-08-11T14:29:07.626Z,24.80
2018-08-11T14:31:35.712Z,24.70
2018-08-11T14:34:03.859Z,24.70
2018-08-11T14:36:31.990Z,24.70
2018-08-11T14:39:00.063Z,24.70
2018-08-11T14:41:28.177Z,24.70
2018-08-11T14:43:56.250Z,24.70
2018-08-11T14:46:24.343Z,24.70
2018-08-11T14:48:52.690Z,24.70
2018-08-11T14:51:20.740Z,24.70
2018-08-11T14:53:48.878Z,24.70
2018-08-11T14:56:16.961Z,24.70
2018-08-11T14:58:45.067Z,24.70
2018-08-11T15:01:13.151Z,24.70
2018-08-11T15:03:41.262Z,24.70
2018-08-11T15:06:09.415Z,24.70
2018-08-11T15:08:37.566Z,24.70
2018-08-11T15:11:05.648Z,24.70
2018-08-11T15:13:33.733Z,24.70
2018-08-11T15:16:01.913Z,24.70
2018-08-11T15:18:29.966Z,24.70
2018-08-11T15:20:58.038Z,24.70
2018-08-11T15:23:26.105Z,24.70
2018-08-11T15:25:54.450Z,24.70
2018-08-11T15:28:22.558Z,24.70
2018-08-11T15:30:50.665Z,24.70
2018-08-11T15:33:18.744Z,24.70
2018-08-11T15:35:46.843Z,24.70
2018-08-11T15:38:14.966Z,24.70
2018-08-11T15:40:43.143Z,24.70
2018-08-11T15:43:11.252Z,24.70
2018-08-11T15:45:39.330Z,24.70
2018-08-11T15:48:07.412Z,24.70
2018-08-11T15:50:35.573Z,24.70
2018-08-11T15:53:03.726Z,24.70
2018-08-11T15:55:31.791Z,24.70
2018-08-11T15:57:59.885Z,24.70
2018-08-11T16:00:28.040Z,24.70
2018-08-11T16:02:56.232Z,24.70
2018-08-11T16:05:25.005Z,24.70
2018-08-11T16:07:53.157Z,24.70
2018-08-11T16:10:21.190Z,24.70
2018-08-11T16:12:49.354Z,24.70
2018-08-11T16:15:17.482Z,24.70
2018-08-11T16:17:45.526Z,24.60
2018-08-11T16:20:13.835Z,24.70
2018-08-11T16:22:42.826Z,24.70
2018-08-11T16:25:10.939Z,24.70
2018-08-11T16:27:39.034Z,24.70
2018-08-11T16:30:09.178Z,24.70
2018-08-11T16:32:37.386Z,24.70
2018-08-11T16:35:05.438Z,24.70
2018-08-11T16:37:33.612Z,24.70
2018-08-11T16:40:01.866Z,24.70
2018-08-11T16:42:29.943Z,24.70
2018-08-11T16:44:58.123Z,24.60
2018-08-11T16:47:26.266Z,24.70
2018-08-11T16:49:54.402Z,24.70
2018-08-11T16:52:22.470Z,24.70
2018-08-11T16:54:50.566Z,24.70
2018-08-11T16:57:18.685Z,24.70
2018-08-11T16:59:46.762Z,24.60
2018-08-11T17:02:14.818Z,24.60
2018-08-11T17:04:42.925Z,24.70
2018-08-11T17:07:11.058Z,24.70
2018-08-11T17:09:39.126Z,24.60
2018-08-11T17:12:07.294Z,24.60
2018-08-11T17:14:35.423Z,24.50
2018-08-11T17:17:03.478Z,24.50
2018-08-11T17:19:31.554Z,24.50
2018-08-11T17:21:59.695Z,24.50
2018-08-11T17:24:27.829Z,24.40
2018-08-11T17:26:55.949Z,24.40
2018-08-11T17:29:24.048Z,24.50
2018-08-11T17:31:52.130Z,24.50
2018-08-11T17:34:20.266Z,24.50
2018-08-11T17:36:48.358Z,24.40
2018-08-11T17:39:16.449Z,24.40
2018-08-11T17:41:44.600Z,24.40
2018-08-11T17:44:12.644Z,24.40
2018-08-11T17:46:40.734Z,24.40
2018-08-11T17:49:08.943Z,24.50
2018-08-11T17:51:36.938Z,24.50
2018-08-11T17:54:05.018Z,24.60
2018-08-11T17:56:33.134Z,24.60
2018-08-11T17:59:01.255Z,24.60
2018-08-11T18:01:29.333Z,24.60
2018-08-11T18:03:57.417Z,24.60
2018-08-11T18:06:25.506Z,24.60
2018-08-11T18:08:53.630Z,24.60
2018-08-11T18:11:21.730Z,24.60
2018-08-11T18:13:49.803Z,24.50
2018-08-11T18:16:17.906Z,24.50
2018-08-11T18:18:46.051Z,24.60
2018-08-11T18:21:14.159Z,24.60
2018-08-11T18:23:42.214Z,24.50
2018-08-11T18:26:10.290Z,24.50
2018-08-11T18:28:38.442Z,24.50
2018-08-11T18:31:06.499Z,24.50
2018-08-11T18:33:34.630Z,24.60
2018-08-11T18:36:02.779Z,24.50
2018-08-11T18:38:30.968Z,24.50
2018-08-11T18:40:59.142Z,24.50
2018-08-11T18:43:27.367Z,24.50
2018-08-11T18:45:55.438Z,24.40
2018-08-11T18:48:23.600Z,24.50
2018-08-11T18:50:51.730Z,24.40
2018-08-11T18:53:19.875Z,24.40
2018-08-11T18:55:48.108Z,24.40
2018-08-11T18:58:16.242Z,24.30
2018-08-11T19:00:44.349Z,24.30
2018-08-11T19:03:12.423Z,24.30
2018-08-11T19:05:40.498Z,24.20
2018-08-11T19:08:08.662Z,24.20
2018-08-11T19:10:36.785Z,24.20
2018-08-11T19:13:04.995Z,24.20
2018-08-11T19:15:33.075Z,24.10
2018-08-11T19:18:01.158Z,24.10
2018-08-11T19:20:29.282Z,24.00
2018-08-11T19:22:57.510Z,24.00
2018-08-11T19:25:25.585Z,24.00
2018-08-11T19:27:53.679Z,23.90
2018-08-11T19:30:21.904Z,23.90
2018-08-11T19:32:49.974Z,23.90
2018-08-11T19:35:18.070Z,23.80
2018-08-11T19:37:46.145Z,23.80
2018-08-11T19:40:14.220Z,23.70
2018-08-11T19:42:42.286Z,23.70
2018-08-11T19:45:11.534Z,23.60
2018-08-11T19:47:39.646Z,23.60
2018-08-11T19:50:08.723Z,23.50
2018-08-11T19:52:36.818Z,23.50
2018-08-11T19:55:05.274Z,23.40
2018-08-11T19:57:33.334Z,23.40
2018-08-11T20:00:01.410Z,23.40
2018-08-11T20:02:29.473Z,23.30
2018-08-11T20:04:57.605Z,23.30
2018-08-11T20:07:25.762Z,23.30
2018-08-11T20:09:53.856Z,23.30
2018-08-11T20:12:21.964Z,23.20
2018-08-11T20:14:50.026Z,23.20
2018-08-11T20:17:18.286Z,23.10
2018-08-11T20:19:46.390Z,23.10
2018-08-11T20:22:18.877Z,23.10
2018-08-11T20:24:47.406Z,23.00
2018-08-11T20:27:16.038Z,23.00
2018-08-11T20:29:44.149Z,22.90
2018-08-11T20:32:13.502Z,23.00
2018-08-11T20:34:42.304Z,22.90
2018-08-11T20:37:11.334Z,22.90
2018-08-11T20:39:39.413Z,22.90
2018-08-11T20:42:07.585Z,22.80
2018-08-11T20:44:35.912Z,22.80
2018-08-11T20:47:03.982Z,22.80
2018-08-11T20:49:32.057Z,22.80
2018-08-11T20:52:00.267Z,22.80
2018-08-11T20:54:28.593Z,22.70
2018-08-11T20:56:56.711Z,22.80
2018-08-11T20:59:24.798Z,22.70
2018-08-11T21:01:52.962Z,22.70
2018-08-11T21:04:20.982Z,22.70
2018-08-11T21:06:49.090Z,22.70
2018-08-11T21:09:17.159Z,22.70
2018-08-11T21:11:45.217Z,22.60
2018-08-11T21:14:13.291Z,22.60
2018-08-11T21:16:41.358Z,22.60
2018-08-11T21:19:09.434Z,22.60
2018-08-11T21:21:37.605Z,22.60
2018-08-11T21:24:05.654Z,22.60
2018-08-11T21:26:33.738Z,22.60
2018-08-11T21:29:01.846Z,22.60
2018-08-11T21:31:30.027Z,22.60
2018-08-11T21:33:58.082Z,22.60
2018-08-11T21:36:26.178Z,22.60
2018-08-11T21:38:54.274Z,22.60
2018-08-11T21:41:22.354Z,22.50
2018-08-11T21:43:50.446Z,22.50
2018-08-11T21:46:18.529Z,22.50
2018-08-11T21:48:46.611Z,22.50
2018-08-11T21:51:14.702Z,22.50
2018-08-11T21:53:42.871Z,22.50
2018-08-11T21:56:10.922Z,22.50
2018-08-11T21:58:39.094Z,22.50
2018-08-11T22:01:13.618Z,22.50
2018-08-11T22:03:42.558Z,22.50
2018-08-11T22:06:10.658Z,22.50
2018-08-11T22:08:38.847Z,22.50
2018-08-11T22:11:07.058Z,22.40
2018-08-11T22:13:35.243Z,22.40
2018-08-11T22:16:04.338Z,22.40
2018-08-11T22:18:32.494Z,22.40
2018-08-11T22:21:00.571Z,22.40
2018-08-11T22:23:28.759Z,22.40
2018-08-11T22:25:57.898Z,22.40
2018-08-11T22:28:25.954Z,22.40
2018-08-11T22:30:54.031Z,22.40
2018-08-11T22:33:22.181Z,22.40
2018-08-11T22:35:50.310Z,22.40
2018-08-11T22:38:18.294Z,22.40
2018-08-11T22:40:46.402Z,22.30
2018-08-11T22:43:14.466Z,22.30
2018-08-11T22:45:42.560Z,22.30
2018-08-11T22:48:10.743Z,22.30
2018-08-11T22:50:38.971Z,22.30
2018-08-11T22:53:07.022Z,22.30
2018-08-11T22:55:35.106Z,22.30
2018-08-11T22:58:03.173Z,22.30
2018-08-11T23:00:31.324Z,22.30
2018-08-11T23:02:59.474Z,22.30
2018-08-11T23:05:27.541Z,22.30
2018-08-11T23:07:55.590Z,22.30
2018-08-11T23:10:23.637Z,22.20
2018-08-11T23:12:51.705Z,22.30
2018-08-11T23:15:19.843Z,22.30
2018-08-11T23:17:50.102Z,22.20
2018-08-11T23:20:18.178Z,22.20
2018-08-11T23:22:46.398Z,22.20
2018-08-11T23:25:15.031Z,22.20
2018-08-11T23:27:43.081Z,22.20
2018-08-11T23:30:12.590Z,22.20
2018-08-11T23:32:41.740Z,22.20
2018-08-11T23:35:10.113Z,22.20
2018-08-11T23:37:38.404Z,22.20
2018-08-11T23:40:07.315Z,22.20
2018-08-11T23:42:35.661Z,22.20
2018-08-11T23:45:04.558Z,22.20
2018-08-11T23:47:32.676Z,22.10
2018-08-11T23:50:00.736Z,22.10
2018-08-11T23:52:29.587Z,22.10
2018-08-11T23:54:57.678Z,22.10
2018-08-11T23:57:25.730Z,22.10
2018-08-11T23:59:53.835Z,22.10
